createdAt,value
2022-11-18T00:01:25.417Z,67.70
2022-11-18T00:06:25.646Z,67.78
2022-11-18T00:11:43.690Z,67.92
2022-11-18T00:16:35.288Z,68.21
2022-11-18T00:21:26.869Z,68.80
2022-11-18T00:26:18.445Z,67.77
2022-11-18T00:31:12.548Z,68.78
2022-11-18T00:36:05.338Z,68.66
2022-11-18T00:41:02.058Z,68.56
2022-11-18T00:45:53.824Z,67.95
2022-11-18T00:50:45.404Z,68.24
2022-11-18T00:55:36.995Z,69.08
2022-11-18T01:00:28.694Z,68.23
2022-11-18T01:05:20.537Z,69.46
2022-11-18T01:10:12.210Z,70.29
2022-11-18T01:15:03.983Z,69.86
2022-11-18T01:19:55.553Z,69.82
2022-11-18T01:24:47.179Z,69.75
2022-11-18T01:29:38.727Z,69.26
2022-11-18T01:34:30.311Z,69.54
2022-11-18T01:39:22.232Z,70.31
2022-11-18T01:44:51.420Z,70.16
2022-11-18T01:49:43.069Z,70.04
2022-11-18T01:54:40.985Z,70.00
2022-11-18T01:59:37.622Z,70.40
2022-11-18T02:04:29.454Z,70.41
2022-11-18T02:09:21.938Z,70.98
2022-11-18T02:14:13.577Z,70.25
2022-11-18T02:19:31.349Z,69.83
2022-11-18T02:24:41.868Z,70.56
2022-11-18T02:29:42.022Z,70.73
2022-11-18T02:34:33.571Z,70.22
2022-11-18T02:39:31.844Z,70.12
2022-11-18T02:44:26.303Z,69.89
2022-11-18T02:49:23.724Z,69.27
2022-11-18T02:54:17.146Z,68.82
2022-11-18T02:59:08.696Z,70.01
2022-11-18T03:04:00.445Z,70.23
2022-11-18T03:09:10.237Z,70.39
2022-11-18T03:14:08.166Z,70.14
2022-11-18T03:19:16.177Z,69.39
2022-11-18T03:24:17.636Z,70.33
2022-11-18T03:29:24.454Z,69.68
2022-11-18T03:34:28.530Z,69.48
2022-11-18T03:39:22.576Z,69.99
2022-11-18T03:44:20.101Z,71.16
2022-11-18T03:49:19.967Z,70.58
2022-11-18T03:54:20.744Z,70.03
2022-11-18T03:59:23.703Z,69.74
2022-11-18T04:04:15.688Z,69.22
2022-11-18T04:09:13.613Z,69.82
2022-11-18T04:14:08.332Z,69.80
2022-11-18T04:19:05.768Z,70.48
2022-11-18T04:23:58.056Z,70.22
2022-11-18T04:28:49.620Z,71.12
2022-11-18T04:33:41.183Z,70.34
2022-11-18T04:38:32.792Z,69.94
2022-11-18T04:43:24.327Z,68.62
2022-11-18T04:48:16.200Z,68.42
2022-11-18T04:53:07.749Z,66.88
2022-11-18T04:57:59.327Z,66.86
2022-11-18T05:02:51.003Z,66.02
2022-11-18T05:07:42.964Z,67.16
2022-11-18T05:12:49.778Z,67.48
2022-11-18T05:17:41.764Z,67.51
2022-11-18T05:22:33.456Z,66.52
2022-11-18T05:27:25.019Z,65.31
2022-11-18T05:32:16.582Z,65.65
2022-11-18T05:37:08.367Z,65.94
2022-11-18T05:42:19.063Z,66.39
2022-11-18T05:47:11.142Z,67.28
2022-11-18T05:52:03.058Z,67.82
2022-11-18T05:56:54.662Z,67.42
2022-11-18T06:01:51.176Z,67.59
2022-11-18T06:06:46.071Z,67.37
2022-11-18T06:11:46.032Z,67.85
2022-11-18T06:16:41.295Z,68.32
2022-11-18T06:21:33.723Z,67.31
2022-11-18T06:26:25.371Z,67.39
2022-11-18T06:31:17.000Z,66.82
2022-11-18T06:36:09.315Z,66.37
2022-11-18T06:41:02.007Z,67.21
2022-11-18T06:46:12.176Z,67.55
2022-11-18T06:51:08.009Z,67.79
2022-11-18T06:56:04.056Z,66.87
2022-11-18T07:00:55.768Z,68.31
2022-11-18T07:05:47.457Z,68.58
2022-11-18T07:10:39.167Z,68.24
2022-11-18T07:15:31.066Z,68.02
2022-11-18T07:20:22.680Z,68.14
2022-11-18T07:25:14.352Z,68.03
2022-11-18T07:30:06.561Z,67.47
2022-11-18T07:34:58.163Z,66.37
2022-11-18T07:39:49.820Z,67.05
2022-11-18T07:44:41.430Z,66.24
2022-11-18T07:49:33.038Z,66.82
2022-11-18T07:54:24.680Z,65.40
2022-11-18T07:59:16.597Z,65.59
2022-11-18T08:04:11.132Z,64.28
2022-11-18T08:09:03.956Z,64.55
2022-11-18T08:13:55.581Z,64.55
2022-11-18T08:18:47.598Z,64.80
2022-11-18T08:23:42.303Z,62.21
2022-11-18T08:28:35.003Z,61.90
2022-11-18T08:33:26.852Z,61.85
2022-11-18T08:38:18.613Z,61.16
2022-11-18T08:43:11.692Z,60.68
2022-11-18T08:48:03.401Z,59.56
2022-11-18T08:52:54.992Z,57.72
2022-11-18T08:57:47.823Z,57.53
2022-11-18T09:02:39.686Z,57.80
2022-11-18T09:07:31.268Z,57.99
2022-11-18T09:12:22.847Z,56.72
2022-11-18T09:17:15.216Z,55.60
2022-11-18T09:22:07.375Z,54.75
2022-11-18T09:26:59.205Z,55.17
2022-11-18T09:31:51.182Z,54.85
2022-11-18T09:36:42.785Z,54.92
2022-11-18T09:41:49.047Z,55.45
2022-11-18T09:47:04.839Z,55.59
2022-11-18T09:51:57.498Z,54.75
2022-11-18T09:56:51.921Z,55.03
2022-11-18T10:01:44.130Z,54.42
2022-11-18T10:06:35.922Z,53.65
2022-11-18T10:11:42.094Z,52.45
2022-11-18T10:16:50.910Z,52.04
2022-11-18T10:22:24.621Z,52.22
2022-11-18T10:27:17.802Z,51.25
2022-11-18T10:32:15.505Z,50.54
2022-11-18T10:37:28.167Z,52.18
2022-11-18T10:42:46.679Z,52.39
2022-11-18T10:47:38.216Z,51.97
2022-11-18T10:52:30.447Z,50.66
2022-11-18T10:57:24.737Z,51.13
2022-11-18T11:02:39.600Z,48.87
2022-11-18T11:07:37.718Z,48.21
2022-11-18T11:12:33.039Z,50.01
2022-11-18T11:17:39.866Z,49.07
2022-11-18T11:22:31.915Z,49.40
2022-11-18T11:32:56.249Z,48.16
2022-11-18T11:37:55.520Z,49.29
2022-11-18T11:43:05.988Z,50.36
2022-11-18T11:48:03.395Z,49.97
2022-11-18T11:53:30.409Z,49.86
2022-11-18T11:58:28.141Z,49.55
2022-11-18T12:03:25.790Z,50.00
2022-11-18T12:08:17.344Z,49.04
2022-11-18T12:13:30.810Z,48.58
2022-11-18T12:18:42.085Z,47.48
2022-11-18T12:23:34.551Z,46.79
2022-11-18T12:28:26.078Z,47.21
2022-11-18T12:33:18.144Z,47.25
2022-11-18T12:38:29.389Z,45.70
2022-11-18T12:43:48.589Z,45.42
2022-11-18T12:48:41.390Z,45.19
2022-11-18T12:53:37.769Z,43.96
2022-11-18T12:58:29.483Z,43.93
2022-11-18T13:03:28.740Z,45.09
2022-11-18T13:08:20.365Z,45.66
2022-11-18T13:13:32.005Z,45.42
2022-11-18T13:18:23.653Z,45.94
2022-11-18T13:23:33.896Z,46.04
2022-11-18T13:28:45.248Z,46.69
2022-11-18T13:33:39.186Z,47.19
2022-11-18T13:38:30.806Z,47.65
2022-11-18T13:43:26.345Z,47.28
2022-11-18T13:48:18.143Z,47.98
2022-11-18T13:53:42.953Z,47.76
2022-11-18T13:59:15.729Z,47.44
2022-11-18T14:04:25.828Z,48.39
2022-11-18T14:09:27.271Z,47.50
2022-11-18T14:14:29.414Z,48.46
2022-11-18T14:19:32.367Z,48.10
2022-11-18T14:24:27.771Z,48.04
2022-11-18T14:29:23.754Z,48.67
2022-11-18T14:34:26.870Z,49.15
2022-11-18T14:39:30.254Z,50.34
2022-11-18T14:44:24.354Z,51.10
2022-11-18T14:49:19.587Z,51.31
2022-11-18T14:54:20.809Z,51.41
2022-11-18T14:59:17.762Z,52.47
2022-11-18T15:04:09.546Z,52.63
2022-11-18T15:09:01.313Z,52.83
2022-11-18T15:13:52.965Z,53.81
2022-11-18T15:18:47.313Z,53.99
2022-11-18T15:23:39.224Z,53.88
2022-11-18T15:28:30.859Z,54.38
2022-11-18T15:33:22.564Z,54.71
2022-11-18T15:38:14.214Z,54.77
2022-11-18T15:43:05.763Z,54.91
2022-11-18T15:47:57.878Z,55.12
2022-11-18T15:52:49.539Z,56.08
2022-11-18T15:57:41.240Z,57.83
2022-11-18T16:02:33.182Z,58.75
2022-11-18T16:07:25.166Z,59.04
2022-11-18T16:12:36.551Z,58.84
2022-11-18T16:17:28.144Z,59.27
2022-11-18T16:22:19.768Z,59.44
2022-11-18T16:27:11.324Z,58.57
2022-11-18T16:32:12.141Z,58.23
2022-11-18T16:37:06.348Z,58.13
2022-11-18T16:42:07.314Z,58.64
2022-11-18T16:47:00.566Z,59.53
2022-11-18T16:51:54.846Z,58.83
2022-11-18T16:56:47.969Z,58.76
2022-11-18T17:01:39.616Z,58.75
2022-11-18T17:06:31.833Z,58.58
2022-11-18T17:11:23.406Z,59.57
2022-11-18T17:16:17.932Z,60.46
2022-11-18T17:21:17.360Z,60.52
2022-11-18T17:26:13.058Z,61.08
2022-11-18T17:31:06.857Z,61.17
2022-11-18T17:36:03.725Z,61.41
2022-11-18T17:40:56.850Z,63.06
2022-11-18T17:45:53.214Z,63.33
2022-11-18T17:50:44.793Z,63.31
2022-11-18T17:55:36.464Z,64.22
2022-11-18T18:00:29.213Z,63.69
2022-11-18T18:05:21.015Z,63.04
2022-11-18T18:10:12.674Z,62.59
2022-11-18T18:15:05.104Z,62.94
2022-11-18T18:19:56.701Z,63.18
2022-11-18T18:24:48.362Z,63.41
2022-11-18T18:29:39.949Z,63.12
2022-11-18T18:34:31.562Z,62.40
2022-11-18T18:39:23.077Z,62.38
2022-11-18T18:44:18.574Z,62.86
2022-11-18T18:49:13.414Z,63.93
2022-11-18T18:54:06.290Z,62.99
2022-11-18T18:58:58.118Z,64.74
2022-11-18T19:03:57.633Z,64.81
2022-11-18T19:08:49.288Z,65.54
2022-11-18T19:13:41.041Z,64.71
2022-11-18T19:18:35.845Z,64.28
2022-11-18T19:23:27.704Z,64.63
2022-11-18T19:28:19.251Z,65.17
2022-11-18T19:33:12.835Z,64.81
2022-11-18T19:38:04.373Z,65.74
2022-11-18T19:42:55.973Z,65.23
2022-11-18T19:47:47.488Z,65.17
2022-11-18T19:52:39.023Z,64.92
2022-11-18T19:57:31.660Z,63.97
2022-11-18T20:02:23.306Z,64.77
2022-11-18T20:07:14.973Z,66.45
2022-11-18T20:12:06.921Z,65.95
2022-11-18T20:16:58.578Z,65.27
2022-11-18T20:21:50.436Z,64.30
2022-11-18T20:26:42.357Z,64.02
2022-11-18T20:31:35.416Z,63.61
2022-11-18T20:36:31.116Z,63.60
2022-11-18T20:41:23.966Z,63.56
2022-11-18T20:46:20.677Z,65.10
2022-11-18T20:51:24.324Z,64.87
2022-11-18T20:56:18.682Z,64.30
2022-11-18T21:01:15.910Z,65.21
2022-11-18T21:06:14.283Z,65.08
2022-11-18T21:11:08.748Z,64.98
2022-11-18T21:16:01.508Z,65.05
2022-11-18T21:21:15.630Z,65.14
2022-11-18T21:26:13.013Z,65.23
2022-11-18T21:31:09.500Z,65.03
2022-11-18T21:36:01.062Z,65.92
2022-11-18T21:40:52.628Z,66.29
2022-11-18T21:45:44.192Z,65.70
2022-11-18T21:50:35.750Z,65.74
2022-11-18T21:55:27.318Z,65.09
2022-11-18T22:00:19.061Z,65.68
2022-11-18T22:05:10.630Z,67.11
2022-11-18T22:10:02.223Z,66.37
2022-11-18T22:14:53.726Z,67.15
2022-11-18T22:19:45.287Z,66.81
2022-11-18T22:24:36.913Z,66.96
2022-11-18T22:29:28.529Z,67.46
2022-11-18T22:34:20.090Z,66.76
2022-11-18T22:39:11.976Z,66.19
2022-11-18T22:44:07.612Z,65.64
2022-11-18T22:49:00.385Z,66.65
2022-11-18T22:54:09.805Z,65.67
2022-11-18T22:59:04.277Z,66.42
2022-11-18T23:03:55.821Z,66.70
2022-11-18T23:08:47.376Z,67.09
2022-11-18T23:14:03.800Z,68.08
2022-11-18T23:18:56.553Z,67.57
2022-11-18T23:23:48.124Z,67.17
2022-11-18T23:28:40.363Z,67.97
2022-11-18T23:33:32.601Z,66.96
2022-11-18T23:38:24.335Z,66.54
2022-11-18T23:43:16.179Z,67.43
2022-11-18T23:48:07.741Z,68.30
2022-11-18T23:52:59.297Z,68.09
2022-11-18T23:57:50.850Z,68.54
